Time;durP1;ratioP1;P1;durP2;ratioP2;P2;SDS_P1;SDS_P2;PMS_P1;PMS_P2;Temp;Humidity;BMP_temperature;BMP_pressure;BME280_temperature;BME280_humidity;BME280_pressure;Samples;Min_cycle;Max_cycle;Signal;HPM_P1;HPM_P2
2022/01/29 00:02:14;;;;;;;16.25;12.55;;;;;;;7.07;100.00;102583.44;5106782;28;20089;-74
2022/01/29 00:04:40;;;;;;;15.38;11.88;;;;;;;7.06;100.00;102587.28;5096226;28;20031;-74
2022/01/29 00:07:06;;;;;;;15.90;11.63;;;;;;;7.05;100.00;102580.91;5101481;28;20029;-74
2022/01/29 00:09:31;;;;;;;15.85;11.32;;;;;;;7.05;100.00;102580.03;5105995;28;20395;-74
2022/01/29 00:11:57;;;;;;;15.27;10.82;;;;;;;7.05;100.00;102577.28;5089159;28;20035;-74
2022/01/29 00:14:22;;;;;;;16.20;11.20;;;;;;;7.05;100.00;102580.03;5106601;28;20028;-74
2022/01/29 00:16:48;;;;;;;14.40;10.57;;;;;;;7.06;100.00;102581.75;5080815;28;20056;-74
2022/01/29 00:19:13;;;;;;;14.82;10.40;;;;;;;7.05;100.00;102583.66;5102962;28;20037;-74
2022/01/29 00:21:38;;;;;;;13.18;9.63;;;;;;;7.04;100.00;102573.66;5099814;28;20048;-74
2022/01/29 00:24:04;;;;;;;14.75;9.73;;;;;;;7.05;100.00;102578.16;5107314;28;20421;-74
2022/01/29 00:26:30;;;;;;;12.60;9.48;;;;;;;7.04;100.00;102581.94;5116281;28;20024;-74
2022/01/29 00:28:57;;;;;;;12.57;9.10;;;;;;;7.02;100.00;102569.41;5104362;27;20051;-74
2022/01/29 00:31:23;;;;;;;11.93;9.27;;;;;;;7.02;100.00;102563.91;5120332;28;20044;-74
2022/01/29 00:33:48;;;;;;;12.15;9.35;;;;;;;7.03;100.00;102549.03;5088959;28;20047;-74
2022/01/29 00:36:14;;;;;;;12.60;9.15;;;;;;;7.00;100.00;102553.09;5104844;28;20507;-74
2022/01/29 00:38:39;;;;;;;10.27;7.93;;;;;;;7.01;100.00;102537.34;5099499;28;20032;-74
2022/01/29 00:41:05;;;;;;;10.43;7.70;;;;;;;7.00;100.00;102544.78;5104238;28;20040;-74
2022/01/29 00:43:31;;;;;;;11.05;7.68;;;;;;;6.99;100.00;102543.09;5092371;28;20043;-74
2022/01/29 00:45:56;;;;;;;12.50;8.02;;;;;;;6.99;100.00;102540.31;5111430;28;20023;-74
2022/01/29 00:48:22;;;;;;;11.25;8.02;;;;;;;6.98;100.00;102524.81;5111189;28;20039;-74
2022/01/29 00:50:47;;;;;;;10.20;8.27;;;;;;;6.97;100.00;102530.59;5092332;28;20028;-74
2022/01/29 00:53:13;;;;;;;10.45;7.72;;;;;;;6.98;100.00;102546.09;5114518;28;20039;-74
2022/01/29 00:55:41;;;;;;;11.85;8.10;;;;;;;6.98;100.00;102535.03;5099988;28;20489;-74
2022/01/29 00:58:07;;;;;;;9.75;7.53;;;;;;;6.97;100.00;102533.34;5106182;27;20043;-74
2022/01/29 01:00:32;;;;;;;10.00;7.38;;;;;;;6.97;100.00;102525.06;5106611;28;20094;-74
2022/01/29 01:02:58;;;;;;;10.25;7.18;;;;;;;6.97;100.00;102522.31;5127066;27;20027;-74
2022/01/29 01:05:23;;;;;;;9.35;6.85;;;;;;;6.96;100.00;102515.06;5078102;28;20031;-74
2022/01/29 01:07:49;;;;;;;11.60;7.50;;;;;;;6.96;100.00;102515.06;5114682;27;20477;-74
2022/01/29 01:10:14;;;;;;;8.65;6.68;;;;;;;6.96;100.00;102520.59;5118957;28;20023;-74
2022/01/29 01:12:40;;;;;;;9.20;7.35;;;;;;;6.97;100.00;102517.63;5096563;28;20035;-74
2022/01/29 01:15:06;;;;;;;9.15;6.82;;;;;;;6.96;100.00;102510.38;5084777;27;20540;-74
2022/01/29 01:17:31;;;;;;;8.65;6.65;;;;;;;6.95;100.00;102519.75;5119518;27;20038;-74
2022/01/29 01:19:57;;;;;;;11.32;6.50;;;;;;;6.94;100.00;102513.38;5116484;27;20031;-74
2022/01/29 01:22:22;;;;;;;8.02;6.60;;;;;;;6.93;100.00;102516.34;5117553;28;20054;-74
2022/01/29 01:24:47;;;;;;;8.90;6.15;;;;;;;6.94;100.00;102507.00;5101587;28;20032;-74
2022/01/29 01:27:14;;;;;;;7.07;5.72;;;;;;;6.94;100.00;102507.84;5106766;28;20040;-74
2022/01/29 01:29:39;;;;;;;7.88;5.82;;;;;;;6.94;100.00;102520.81;5100130;28;20579;-74
2022/01/29 01:32:05;;;;;;;8.02;6.03;;;;;;;6.94;100.00;102524.44;5118830;27;20047;-74
2022/01/29 01:34:35;;;;;;;7.47;5.63;;;;;;;6.96;100.00;102537.16;5107577;28;20054;-74
2022/01/29 01:37:07;;;;;;;8.90;5.50;;;;;;;6.94;100.00;102527.19;5126506;27;20031;-74
2022/01/29 01:39:36;;;;;;;7.10;5.43;;;;;;;6.94;100.00;102543.75;5119901;27;20043;-74
2022/01/29 01:42:06;;;;;;;7.68;5.80;;;;;;;6.93;100.00;102531.00;5110839;27;20035;-74
2022/01/29 01:44:35;;;;;;;7.95;5.78;;;;;;;6.93;100.00;102544.81;5109462;28;20119;-74
2022/01/29 01:47:00;;;;;;;7.20;5.10;;;;;;;6.96;100.00;102542.69;5117599;27;20521;-74
2022/01/29 01:49:26;;;;;;;7.63;5.43;;;;;;;6.94;100.00;102543.75;5111906;27;20024;-74
2022/01/29 01:51:51;;;;;;;7.88;5.47;;;;;;;6.94;100.00;102545.69;5117456;27;20502;-74
2022/01/29 01:54:17;;;;;;;8.02;5.25;;;;;;;6.95;100.00;102544.59;5114848;27;20031;-74
2022/01/29 01:56:42;;;;;;;7.25;5.32;;;;;;;6.96;100.00;102550.97;5115832;27;20031;-74
2022/01/29 01:59:08;;;;;;;7.70;5.22;;;;;;;6.96;100.00;102545.44;5114703;27;20028;-74
2022/01/29 02:01:33;;;;;;;7.63;5.68;;;;;;;6.95;100.00;102547.38;5102919;28;20031;-74
2022/01/29 02:04:00;;;;;;;8.52;5.90;;;;;;;6.95;100.00;102541.84;5111863;27;20042;-74
2022/01/29 02:06:25;;;;;;;7.03;5.15;;;;;;;6.94;100.00;102546.53;5117909;27;20531;-74
2022/01/29 02:08:58;;;;;;;8.90;5.90;;;;;;;6.94;100.00;102543.75;5129881;27;20085;-74
2022/01/29 02:11:23;;;;;;;8.98;6.68;;;;;;;6.94;100.00;102545.69;5118095;27;20468;-74
2022/01/29 02:13:49;;;;;;;9.48;7.20;;;;;;;6.96;100.00;102548.22;5112935;27;20024;-74
2022/01/29 02:16:14;;;;;;;7.00;5.38;;;;;;;6.92;100.00;102540.38;5127413;27;20550;-74
2022/01/29 02:18:40;;;;;;;8.10;5.90;;;;;;;6.94;100.00;102535.47;5107228;28;20028;-74
2022/01/29 02:21:05;;;;;;;9.38;7.22;;;;;;;6.94;100.00;102527.19;5121156;27;20031;-74
2022/01/29 02:23:31;;;;;;;8.80;6.45;;;;;;;6.94;100.00;102513.38;5090821;27;20534;-74
2022/01/29 02:25:56;;;;;;;8.73;6.75;;;;;;;6.94;100.00;102518.91;5120971;27;20034;-74
2022/01/29 02:28:23;;;;;;;10.40;7.75;;;;;;;6.95;100.00;102514.22;5118399;27;20446;-74
2022/01/29 02:30:59;;;;;;;10.25;6.95;;;;;;;6.95;100.00;102511.44;5079315;28;20044;-74
2022/01/29 02:33:25;;;;;;;7.60;5.80;;;;;;;6.95;100.00;102514.22;5103257;28;20028;-74
2022/01/29 02:35:51;;;;;;;8.45;5.95;;;;;;;6.94;100.00;102513.38;5097845;28;20039;-74
2022/01/29 02:38:18;;;;;;;7.47;6.00;;;;;;;6.95;100.00;102514.22;5106999;28;20028;-74
2022/01/29 02:40:49;;;;;;;8.13;5.97;;;;;;;6.94;100.00;102513.38;5076222;28;20058;-74
2022/01/29 02:43:16;;;;;;;8.98;7.00;;;;;;;6.95;100.00;102505.94;5114618;28;20394;-74
2022/01/29 02:45:43;;;;;;;8.50;6.00;;;;;;;6.94;100.00;102502.31;5100184;28;20106;-74
2022/01/29 02:48:09;;;;;;;8.00;6.25;;;;;;;6.96;100.00;102506.78;5112987;28;20054;-74
2022/01/29 02:50:34;;;;;;;7.57;5.70;;;;;;;6.96;100.00;102512.28;5096307;28;20027;-74
2022/01/29 02:53:00;;;;;;;8.68;6.50;;;;;;;6.96;100.00;102506.78;5091058;28;20066;-74
2022/01/29 02:55:28;;;;;;;7.68;5.97;;;;;;;6.94;100.00;102507.84;5086772;28;20028;-74
2022/01/29 02:57:54;;;;;;;7.03;5.80;;;;;;;6.96;100.00;102501.25;5095573;28;20548;-74
2022/01/29 03:00:19;;;;;;;9.00;7.15;;;;;;;6.94;100.00;102505.09;5107316;28;20024;-74
2022/01/29 03:02:44;;;;;;;8.32;6.57;;;;;;;6.97;100.00;102502.97;5095229;28;20028;-75
2022/01/29 03:05:10;;;;;;;9.45;6.70;;;;;;;6.96;100.00;102498.47;5105739;28;20058;-74
2022/01/29 03:07:37;;;;;;;10.18;6.45;;;;;;;6.95;100.00;102497.66;5099771;28;20028;-74
2022/01/29 03:10:03;;;;;;;8.55;6.28;;;;;;;6.95;100.00;102489.34;5108038;28;20051;-74
2022/01/29 03:12:29;;;;;;;9.13;6.32;;;;;;;6.94;100.00;102494.03;5091071;28;20039;-74
2022/01/29 03:14:54;;;;;;;8.07;6.07;;;;;;;6.95;100.00;102489.34;5097832;28;20055;-74
2022/01/29 03:17:20;;;;;;;8.43;6.55;;;;;;;6.95;100.00;102489.34;5089224;28;20042;-74
2022/01/29 03:19:45;;;;;;;11.50;8.25;;;;;;;6.96;100.00;102490.19;5103693;28;20484;-74
2022/01/29 03:22:11;;;;;;;8.18;6.70;;;;;;;6.94;100.00;102479.38;5111567;28;20044;-74
2022/01/29 03:24:36;;;;;;;7.45;5.93;;;;;;;6.93;100.00;102475.75;5091304;28;20030;-74
2022/01/29 03:27:02;;;;;;;8.63;6.50;;;;;;;6.94;100.00;102480.22;5105826;28;20036;-74
2022/01/29 03:29:28;;;;;;;7.82;5.97;;;;;;;6.94;100.00;102471.94;5097333;28;20042;-74
2022/01/29 03:31:53;;;;;;;8.90;6.63;;;;;;;6.94;100.00;102471.94;5100719;27;20035;-74
2022/01/29 03:34:19;;;;;;;8.60;6.30;;;;;;;6.94;100.00;102474.69;5127131;27;20038;-74
2022/01/29 03:36:45;;;;;;;8.75;6.82;;;;;;;6.94;100.00;102474.69;5125864;27;20038;-74
2022/01/29 03:39:10;;;;;;;8.68;6.25;;;;;;;6.94;100.00;102477.47;5127843;27;20035;-74
2022/01/29 03:41:36;;;;;;;8.35;5.93;;;;;;;6.94;100.00;102477.47;5115302;27;20030;-74
2022/01/29 03:44:05;;;;;;;7.40;5.95;;;;;;;6.94;100.00;102474.69;5132812;27;20059;-74
2022/01/29 03:46:32;;;;;;;8.68;6.30;;;;;;;6.94;100.00;102474.69;5118781;27;20093;-74
2022/01/29 03:48:58;;;;;;;8.20;6.32;;;;;;;6.93;100.00;102467.47;5122826;27;20112;-74
2022/01/29 03:51:23;;;;;;;7.93;5.47;;;;;;;6.94;100.00;102480.22;5088421;27;20110;-74
2022/01/29 03:53:49;;;;;;;7.45;5.50;;;;;;;6.94;100.00;102483.00;5114298;27;20031;-74
2022/01/29 03:56:15;;;;;;;7.07;5.50;;;;;;;6.94;100.00;102474.69;5123298;27;20027;-74
2022/01/29 03:58:40;;;;;;;8.18;6.28;;;;;;;6.94;100.00;102471.09;5123842;27;20046;-74
2022/01/29 04:01:06;;;;;;;8.93;6.20;;;;;;;6.93;100.00;102474.91;5132955;27;20023;-74
2022/01/29 04:03:32;;;;;;;7.32;5.38;;;;;;;6.93;100.00;102470.22;5087951;28;20055;-74
2022/01/29 04:05:58;;;;;;;7.85;6.05;;;;;;;6.93;100.00;102472.16;5119301;27;20020;-74
2022/01/29 04:08:24;;;;;;;7.20;5.90;;;;;;;6.92;100.00;102471.31;5131423;27;20033;-74
2022/01/29 04:10:51;;;;;;;7.30;5.25;;;;;;;6.93;100.00;102469.38;5135808;27;20055;-74
2022/01/29 04:13:21;;;;;;;9.15;6.20;;;;;;;6.93;100.00;102475.75;5133930;27;20031;-74
2022/01/29 04:15:46;;;;;;;9.38;6.15;;;;;;;6.93;100.00;102475.75;5119147;28;20032;-74
2022/01/29 04:18:12;;;;;;;8.25;6.35;;;;;;;6.93;100.00;102477.69;5108552;28;20042;-74
2022/01/29 04:20:37;;;;;;;7.35;4.90;;;;;;;6.93;100.00;102484.03;5129885;28;20455;-74
2022/01/29 04:23:05;;;;;;;8.43;6.20;;;;;;;6.92;100.00;102487.88;5130832;28;20150;-74
2022/01/29 04:25:31;;;;;;;8.50;6.15;;;;;;;6.92;100.00;102487.88;5124388;27;20027;-74
2022/01/29 04:27:57;;;;;;;8.02;5.88;;;;;;;6.91;100.00;102491.72;5095576;27;20034;-74
2022/01/29 04:35:16;;;;;;;6.95;5.28;;;;;;;6.92;100.00;102493.41;5122562;27;20031;-74
2022/01/29 04:37:42;;;;;;;6.82;4.90;;;;;;;6.92;100.00;102493.41;5129801;27;20353;-74
2022/01/29 04:40:08;;;;;;;6.47;5.20;;;;;;;6.92;100.00;102493.41;5131389;27;20027;-74
2022/01/29 04:42:33;;;;;;;7.32;5.50;;;;;;;6.92;100.00;102493.41;5119372;27;20058;-74
2022/01/29 04:44:59;;;;;;;6.90;5.38;;;;;;;6.92;100.00;102493.41;5123715;27;20028;-74
2022/01/29 04:47:24;;;;;;;9.65;5.78;;;;;;;6.92;100.00;102501.69;5126213;27;20031;-74
2022/01/29 04:49:49;;;;;;;8.23;5.85;;;;;;;6.92;100.00;102498.09;5131603;27;20030;-74
2022/01/29 04:52:15;;;;;;;8.68;6.43;;;;;;;6.93;100.00;102508.06;5126503;27;20038;-74
2022/01/29 04:54:40;;;;;;;6.97;5.00;;;;;;;6.93;100.00;102510.81;5113476;27;20511;-74
2022/01/29 04:57:06;;;;;;;8.55;5.25;;;;;;;6.93;100.00;102500.63;5123301;27;20032;-74
2022/01/29 04:59:31;;;;;;;8.02;5.55;;;;;;;6.94;100.00;102504.25;5129065;27;20024;-74
2022/01/29 05:01:57;;;;;;;9.40;5.82;;;;;;;6.93;100.00;102497.00;5126172;27;20046;-74
2022/01/29 05:04:22;;;;;;;8.15;5.60;;;;;;;6.93;100.00;102500.63;5123029;27;20480;-74
2022/01/29 05:06:48;;;;;;;6.63;4.88;;;;;;;6.93;100.00;102499.78;5115858;28;20069;-74
2022/01/29 05:09:13;;;;;;;8.27;5.50;;;;;;;6.93;100.00;102503.38;5137830;27;20035;-74
2022/01/29 05:11:41;;;;;;;7.90;5.30;;;;;;;6.93;100.00;102497.84;5129062;27;20024;-74
2022/01/29 05:14:10;;;;;;;8.05;5.22;;;;;;;6.93;100.00;102500.63;5117949;27;20084;-74
2022/01/29 05:27:29;;;;;;;9.05;4.78;;;;;;;6.93;100.00;102500.63;5124941;27;20028;-74
2022/01/29 05:29:55;;;;;;;8.00;4.30;;;;;;;6.93;100.00;102489.56;5131441;27;20396;-74
2022/01/29 05:32:22;;;;;;;8.15;5.15;;;;;;;6.93;100.00;102495.09;5136038;27;20035;-74
2022/01/29 05:34:47;;;;;;;8.85;6.05;;;;;;;6.93;100.00;102495.09;5133951;27;20033;-74
2022/01/29 05:37:13;;;;;;;7.53;5.38;;;;;;;6.94;100.00;102487.66;5125490;27;20077;-74
2022/01/29 05:39:38;;;;;;;9.65;6.28;;;;;;;6.93;100.00;102495.09;5134241;27;20566;-74
2022/01/29 05:42:04;;;;;;;8.48;5.90;;;;;;;6.93;100.00;102489.56;5124874;27;20034;-74
2022/01/29 05:44:30;;;;;;;12.15;6.82;;;;;;;6.93;100.00;102488.72;5098810;27;20031;-74
2022/01/29 05:46:55;;;;;;;7.20;5.38;;;;;;;6.93;100.00;102506.13;5133283;27;20015;-74
2022/01/29 05:49:20;;;;;;;9.07;6.32;;;;;;;6.93;100.00;102492.31;5133638;27;20035;-74
2022/01/29 05:51:46;;;;;;;8.15;5.93;;;;;;;6.94;100.00;102493.19;5108381;27;20038;-74
2022/01/29 05:54:11;;;;;;;8.93;6.45;;;;;;;6.93;100.00;102494.25;5128778;27;20035;-74
2022/01/29 05:56:37;;;;;;;7.70;5.85;;;;;;;6.93;100.00;102495.09;5128085;27;20439;-74
2022/01/29 05:59:02;;;;;;;7.50;5.78;;;;;;;6.94;100.00;102502.31;5136101;27;20034;-74
2022/01/29 06:01:28;;;;;;;10.52;7.22;;;;;;;6.92;100.00;102490.66;5126779;27;20038;-74
2022/01/29 06:03:53;;;;;;;10.80;6.18;;;;;;;6.93;100.00;102503.38;5137157;27;20076;-74
2022/01/29 06:06:19;;;;;;;8.25;6.20;;;;;;;6.95;100.00;102505.94;5127620;27;20070;-74
2022/01/29 06:08:44;;;;;;;7.63;5.40;;;;;;;6.94;100.00;102502.31;5119224;27;20096;-74
2022/01/29 06:11:10;;;;;;;8.30;5.80;;;;;;;6.94;100.00;102502.31;5124886;27;20023;-74
2022/01/29 06:13:35;;;;;;;9.25;5.28;;;;;;;6.94;100.00;102502.31;5129143;27;20028;-74
2022/01/29 06:16:02;;;;;;;8.55;6.25;;;;;;;6.93;100.00;102495.09;5114682;27;20084;-74
2022/01/29 06:18:27;;;;;;;7.07;4.97;;;;;;;6.94;100.00;102493.19;5122767;27;20023;-74
2022/01/29 06:20:54;;;;;;;8.55;5.88;;;;;;;6.94;100.00;102494.03;5119051;27;20027;-74
2022/01/29 06:23:30;;;;;;;7.85;5.72;;;;;;;6.94;100.00;102484.91;5096007;27;20043;-74
2022/01/29 06:25:57;;;;;;;7.22;5.45;;;;;;;6.94;100.00;102491.28;5134991;27;20640;-74
2022/01/29 06:28:23;;;;;;;7.45;5.57;;;;;;;6.93;100.00;102489.56;5111481;27;20035;-74
2022/01/29 06:30:48;;;;;;;7.93;5.57;;;;;;;6.95;100.00;102494.88;5139710;27;20052;-74
2022/01/29 06:33:13;;;;;;;9.65;6.15;;;;;;;6.92;100.00;102487.88;5110055;27;20039;-74
2022/01/29 06:35:41;;;;;;;7.90;5.65;;;;;;;6.93;100.00;102497.84;5134708;27;20023;-74
2022/01/29 06:38:08;;;;;;;7.85;5.38;;;;;;;6.93;100.00;102489.56;5131968;27;20394;-74
2022/01/29 06:40:33;;;;;;;7.53;4.97;;;;;;;6.95;100.00;102497.66;5097676;28;20054;-74
2022/01/29 06:43:01;;;;;;;7.57;5.03;;;;;;;6.94;100.00;102495.97;5122079;27;20115;-74
2022/01/29 06:45:26;;;;;;;7.80;4.93;;;;;;;6.93;100.00;102495.09;5127743;27;20478;-74
2022/01/29 06:47:52;;;;;;;7.80;5.03;;;;;;;6.94;100.00;102502.31;5094355;27;20150;-74
2022/01/29 06:50:17;;;;;;;7.43;5.05;;;;;;;6.94;100.00;102496.81;5118097;27;20035;-74
2022/01/29 06:52:43;;;;;;;8.38;5.05;;;;;;;6.96;100.00;102501.25;5125936;27;20030;-74
2022/01/29 06:55:08;;;;;;;8.05;5.25;;;;;;;6.96;100.00;102490.19;5120407;27;20063;-74
2022/01/29 06:57:34;;;;;;;8.13;4.95;;;;;;;6.94;100.00;102499.56;5128185;27;20035;-74
2022/01/29 06:59:59;;;;;;;6.97;4.53;;;;;;;6.93;100.00;102489.56;5126722;27;20032;-74
2022/01/29 07:02:25;;;;;;;7.75;5.53;;;;;;;6.96;100.00;102490.19;5129275;27;20039;-74
2022/01/29 07:04:50;;;;;;;10.48;6.32;;;;;;;6.96;100.00;102492.97;5123313;27;20035;-74
2022/01/29 07:07:16;;;;;;;6.63;5.03;;;;;;;6.94;100.00;102496.81;5126444;27;20027;-74
2022/01/29 07:09:41;;;;;;;7.03;4.45;;;;;;;6.94;100.00;102494.03;5131391;27;20042;-74
2022/01/29 07:12:10;;;;;;;8.68;5.68;;;;;;;6.94;100.00;102490.44;5100724;27;20666;-74
2022/01/29 07:14:39;;;;;;;6.03;4.30;;;;;;;6.94;100.00;102498.72;5121939;27;20054;-74
2022/01/29 07:17:11;;;;;;;6.97;5.07;;;;;;;6.94;100.00;102491.28;5127097;27;20039;-74
2022/01/29 07:19:36;;;;;;;7.73;5.30;;;;;;;6.91;100.00;102496.41;5103188;27;20041;-74
2022/01/29 07:22:02;;;;;;;9.20;5.53;;;;;;;6.92;100.00;102496.16;5133900;27;20031;-74
2022/01/29 07:24:27;;;;;;;7.95;5.10;;;;;;;6.92;100.00;102495.31;5122551;27;20039;-74
2022/01/29 07:26:53;;;;;;;6.22;4.28;;;;;;;6.93;100.00;102500.63;5122264;27;20031;-74
2022/01/29 07:29:18;;;;;;;7.07;4.60;;;;;;;6.93;100.00;102505.28;5110582;28;20389;-74
2022/01/29 07:31:44;;;;;;;6.22;4.43;;;;;;;6.92;100.00;102504.47;5102790;28;20043;-74
2022/01/29 07:34:11;;;;;;;7.45;4.80;;;;;;;6.92;100.00;102504.47;5111715;27;20048;-74
2022/01/29 07:36:36;;;;;;;6.30;4.45;;;;;;;6.92;100.00;102512.75;5104533;28;20039;-74
2022/01/29 07:39:02;;;;;;;5.57;4.10;;;;;;;6.92;100.00;102509.97;5109671;27;20419;-74
2022/01/29 07:41:27;;;;;;;9.60;4.63;;;;;;;6.92;100.00;102512.75;5104131;27;20074;-74
2022/01/29 07:43:53;;;;;;;6.32;4.25;;;;;;;6.93;100.00;102505.28;5105744;28;20024;-74
2022/01/29 07:46:18;;;;;;;5.85;4.53;;;;;;;6.93;100.00;102508.06;5113240;27;20031;-74
2022/01/29 07:48:44;;;;;;;7.88;4.85;;;;;;;6.94;100.00;102512.53;5115570;28;20028;-74
2022/01/29 07:51:09;;;;;;;5.68;4.32;;;;;;;6.93;100.00;102508.91;5112385;28;20031;-74
2022/01/29 07:53:35;;;;;;;6.72;4.70;;;;;;;6.94;100.00;102510.63;5095686;28;20031;-74
2022/01/29 07:56:00;;;;;;;7.85;4.65;;;;;;;6.94;100.00;102518.06;5111944;28;20036;-74
2022/01/29 07:58:26;;;;;;;6.78;4.60;;;;;;;6.94;100.00;102513.38;5081770;27;20035;-74
2022/01/29 08:00:51;;;;;;;5.20;4.03;;;;;;;6.93;100.00;102511.66;5117770;28;20054;-74
2022/01/29 08:03:17;;;;;;;5.90;4.15;;;;;;;6.93;100.00;102517.19;5105555;28;20092;-72
2022/01/29 08:05:42;;;;;;;5.80;4.15;;;;;;;6.94;100.00;102507.84;5099934;28;20027;-74
2022/01/29 08:08:08;;;;;;;5.32;3.90;;;;;;;6.95;100.00;102514.22;5117429;27;20027;-74
2022/01/29 08:10:33;;;;;;;11.07;5.63;;;;;;;6.94;100.00;102507.84;5087408;28;20043;-74
2022/01/29 08:12:59;;;;;;;15.40;7.18;;;;;;;6.97;100.00;102502.97;5079717;28;20089;-78
2022/01/29 08:15:24;;;;;;;13.70;6.03;;;;;;;6.97;100.00;102497.44;5089426;28;20087;-77
2022/01/29 08:17:49;;;;;;;10.05;5.30;;;;;;;6.97;100.00;102501.03;5069703;28;20032;-78
2022/01/29 08:20:15;;;;;;;7.68;4.70;;;;;;;6.97;100.00;102506.56;5074841;28;20067;-75
2022/01/29 08:22:40;;;;;;;9.10;5.18;;;;;;;6.98;100.00;102508.25;5091998;28;20050;-74
2022/01/29 08:25:06;;;;;;;13.98;6.35;;;;;;;7.00;100.00;102508.03;5114074;28;20385;-75
2022/01/29 08:27:32;;;;;;;11.70;5.63;;;;;;;7.01;100.00;102501.44;5116109;28;20055;-74
2022/01/29 08:29:57;;;;;;;8.30;4.43;;;;;;;7.03;100.00;102502.06;5110753;28;20134;-74
2022/01/29 08:32:23;;;;;;;6.72;3.78;;;;;;;7.03;100.00;102504.84;5089066;28;20044;-74
2022/01/29 08:34:48;;;;;;;7.47;4.20;;;;;;;7.06;100.00;102499.69;5093138;28;20019;-73
2022/01/29 08:37:14;;;;;;;6.15;3.90;;;;;;;7.08;100.00;102505.84;5082583;28;20089;-74
2022/01/29 08:39:40;;;;;;;6.60;3.92;;;;;;;7.08;100.00;102503.09;5106365;28;20038;-73
2022/01/29 08:42:08;;;;;;;5.47;3.78;;;;;;;7.10;100.00;102503.72;5098097;28;20131;-76
2022/01/29 08:44:33;;;;;;;6.22;3.53;;;;;;;7.11;100.00;102497.13;5078692;28;20036;-77
2022/01/29 08:46:58;;;;;;;5.80;3.40;;;;;;;7.15;100.00;102494.75;5102647;28;20028;-76
2022/01/29 08:49:25;;;;;;;6.40;3.60;;;;;;;7.17;100.00;102495.38;5081004;28;20089;-77
2022/01/29 08:51:51;;;;;;;4.20;3.20;;;;;;;7.18;100.00;102502.59;5092538;28;20019;-76
2022/01/29 08:54:17;;;;;;;4.50;3.15;;;;;;;7.22;100.00;102501.09;5092488;28;20030;-76
2022/01/29 08:56:43;;;;;;;4.15;3.15;;;;;;;7.25;100.00;102500.66;5071301;28;20024;-76
2022/01/29 08:59:08;;;;;;;4.97;3.28;;;;;;;7.28;100.00;102496.59;5086448;28;20104;-76
2022/01/29 09:01:34;;;;;;;5.85;3.38;;;;;;;7.31;100.00;102508.03;5061553;28;20465;-77
2022/01/29 09:04:00;;;;;;;3.60;2.85;;;;;;;7.34;100.00;102504.81;5063468;28;20081;-77
2022/01/29 09:06:25;;;;;;;3.78;2.80;;;;;;;7.41;100.00;102501.16;5087222;28;20495;-76
2022/01/29 09:08:51;;;;;;;6.18;4.07;;;;;;;7.44;100.00;102500.69;5093735;28;20062;-77
2022/01/29 09:11:17;;;;;;;5.35;3.03;;;;;;;7.47;100.00;102500.28;5100068;28;20028;-76
2022/01/29 09:13:43;;;;;;;3.75;3.10;;;;;;;7.52;100.00;102508.72;5056550;28;20032;-75
2022/01/29 09:16:09;;;;;;;5.38;3.10;;;;;;;7.57;100.00;102503.38;5088922;28;20062;-76
2022/01/29 09:18:34;;;;;;;5.40;3.10;;;;;;;7.61;100.00;102510.16;5097046;28;20054;-74
2022/01/29 09:21:00;;;;;;;4.20;2.53;;;;;;;7.65;100.00;102500.31;5082131;28;20086;-76
2022/01/29 09:23:25;;;;;;;3.72;2.95;;;;;;;7.70;100.00;102508.78;5088898;28;20040;-76
2022/01/29 09:25:50;;;;;;;7.15;3.28;;;;;;;7.74;100.00;102511.94;5088267;28;20020;-74
2022/01/29 09:28:16;;;;;;;4.25;2.75;;;;;;;7.78;100.00;102505.75;5097760;28;20036;-76
2022/01/29 09:30:43;;;;;;;5.13;3.58;;;;;;;7.84;100.00;102507.59;5047057;28;20068;-76
2022/01/29 09:33:08;;;;;;;5.13;3.60;;;;;;;7.88;100.00;102502.44;5093138;28;20093;-76
2022/01/29 09:35:34;;;;;;;5.60;3.75;;;;;;;7.93;100.00;102499.00;5045184;28;20028;-77
2022/01/29 09:37:59;;;;;;;5.97;3.67;;;;;;;7.98;100.00;102504.72;5074404;28;20036;-76
2022/01/29 09:40:25;;;;;;;6.93;4.00;;;;;;;8.01;100.00;102507.00;5078397;28;20100;-77
2022/01/29 09:42:51;;;;;;;5.53;3.90;;;;;;;8.05;100.00;102503.56;5059867;28;20024;-77
2022/01/29 09:45:19;;;;;;;5.88;3.70;;;;;;;8.10;100.00;102500.09;5079019;28;20059;-76
2022/01/29 09:47:45;;;;;;;5.28;3.42;;;;;;;8.13;100.00;102498.78;5059227;28;20055;-78
2022/01/29 09:50:12;;;;;;;6.10;3.42;;;;;;;8.17;100.00;102497.28;5077122;28;20492;-78
2022/01/29 09:52:38;;;;;;;5.85;3.72;;;;;;;8.23;100.00;102494.44;5049192;28;20032;-76
2022/01/29 09:55:04;;;;;;;5.85;3.00;;;;;;;8.26;100.00;102487.59;5095027;28;20092;-76
2022/01/29 09:57:29;;;;;;;5.70;3.58;;;;;;;8.31;100.00;102489.66;5050067;28;20025;-77
2022/01/29 09:59:55;;;;;;;7.30;3.35;;;;;;;8.35;100.00;102486.19;5087394;28;20085;-76
2022/01/29 10:02:20;;;;;;;4.85;3.30;;;;;;;8.42;100.00;102486.16;5091289;28;20031;-77
2022/01/29 10:04:54;;;;;;;4.35;2.95;;;;;;;8.46;100.00;102487.38;5075411;28;20032;-77
2022/01/29 10:07:28;;;;;;;4.72;2.92;;;;;;;8.50;100.00;102486.69;5114522;28;20102;-78
2022/01/29 10:09:54;;;;;;;3.97;2.70;;;;;;;8.55;100.00;102485.97;5071615;28;20569;-78
2022/01/29 10:12:19;;;;;;;3.10;2.53;;;;;;;8.61;100.00;102489.75;5072152;28;20032;-79
2022/01/29 10:14:46;;;;;;;4.75;2.78;;;;;;;8.66;100.00;102499.06;5108305;28;20043;-79
2022/01/29 10:17:12;;;;;;;3.53;2.33;;;;;;;8.71;100.00;102499.19;5061832;28;20032;-78
2022/01/29 10:19:37;;;;;;;4.13;2.63;;;;;;;8.76;100.00;102509.59;5071763;28;20043;-79
2022/01/29 10:22:03;;;;;;;4.30;2.85;;;;;;;8.83;100.00;102509.50;5096923;28;20027;-78
2022/01/29 10:24:29;;;;;;;4.90;2.25;;;;;;;8.85;100.00;102501.78;5069567;28;20068;-78
2022/01/29 10:26:55;;;;;;;3.95;2.58;;;;;;;8.91;100.00;102500.84;5056974;28;20036;-77
2022/01/29 10:29:26;;;;;;;3.13;2.45;;;;;;;8.94;100.00;102509.56;5061404;28;20400;-78
2022/01/29 10:31:53;;;;;;;3.83;2.35;;;;;;;8.97;100.00;102511.03;5071983;28;20047;-76
2022/01/29 10:34:35;;;;;;;5.93;2.80;;;;;;;9.01;100.00;102512.22;5087862;28;20158;-77
2022/01/29 10:37:16;;;;;;;4.43;2.67;;;;;;;9.06;100.00;102509.59;5109590;28;20036;-76
2022/01/29 10:39:48;;;;;;;3.88;2.40;;;;;;;9.09;100.00;102511.91;5100362;28;20040;-77
2022/01/29 10:42:14;;;;;;;3.88;2.30;;;;;;;9.12;100.00;102516.13;5073657;28;20031;-76
2022/01/29 10:44:48;;;;;;;4.00;2.25;;;;;;;9.15;100.00;102519.28;5092976;28;20080;-76
2022/01/29 10:47:13;;;;;;;3.47;2.58;;;;;;;9.22;100.00;102521.09;5039219;28;20048;-76
2022/01/29 10:49:45;;;;;;;4.68;1.92;;;;;;;9.25;100.00;102517.84;5082586;28;20032;-77
2022/01/29 10:52:12;;;;;;;2.70;1.90;;;;;;;9.26;100.00;102516.78;5094061;28;20031;-76
2022/01/29 10:54:39;;;;;;;7.25;2.25;;;;;;;9.27;100.00;102521.22;5087714;28;20375;-77
2022/01/29 10:57:09;;;;;;;5.88;2.33;;;;;;;9.26;100.00;102514.00;5079045;28;20531;-75
2022/01/29 10:59:38;;;;;;;4.65;1.75;;;;;;;9.27;100.00;102521.22;5104518;28;20024;-74
2022/01/29 11:02:08;;;;;;;3.97;2.38;;;;;;;9.29;100.00;102516.31;5091022;28;20024;-76
2022/01/29 11:04:35;;;;;;;4.15;2.30;;;;;;;9.34;100.00;102522.00;5106953;28;20062;-76
2022/01/29 11:07:05;;;;;;;5.00;2.22;;;;;;;9.37;100.00;102524.28;5090277;28;20031;-75
2022/01/29 11:09:31;;;;;;;3.22;1.98;;;;;;;9.41;100.00;102536.59;5083242;28;20075;-75
2022/01/29 11:11:57;;;;;;;2.42;2.10;;;;;;;9.46;100.00;102539.50;5079012;28;20028;-76
2022/01/29 11:14:24;;;;;;;2.60;1.83;;;;;;;9.48;100.00;102536.50;5097537;28;20032;-75
2022/01/29 11:16:49;;;;;;;2.80;1.80;;;;;;;9.52;100.00;102541.31;5092653;28;20028;-75
2022/01/29 11:19:16;;;;;;;2.22;1.75;;;;;;;9.56;100.00;102538.94;5060466;28;20031;-76
2022/01/29 11:21:42;;;;;;;2.53;1.90;;;;;;;9.58;100.00;102534.84;5087336;28;20082;-76
2022/01/29 11:24:09;;;;;;;5.50;2.25;;;;;;;9.60;100.00;102538.19;5076717;28;20028;-74
2022/01/29 11:26:35;;;;;;;2.20;1.88;;;;;;;9.61;100.00;102545.47;5089870;28;20024;-75
2022/01/29 11:29:35;;;;;;;2.35;1.88;;;;;;;9.66;100.00;102550.28;5075376;28;20032;-76
2022/01/29 11:32:34;;;;;;;3.00;1.92;;;;;;;9.67;100.00;102548.34;5117002;27;20039;-75
2022/01/29 11:35:08;;;;;;;2.05;1.60;;;;;;;9.68;100.00;102550.88;5071427;27;20031;-75
2022/01/29 11:37:54;;;;;;;2.72;2.00;;;;;;;9.71;100.00;102555.94;5131068;27;20356;-76